createdAt,value
2022-09-13T00:00:17.984Z,24.59
2022-09-13T00:01:17.971Z,24.08
2022-09-13T00:02:18.003Z,24.01
2022-09-13T00:03:17.975Z,23.86
2022-09-13T00:04:17.930Z,23.89
2022-09-13T00:05:17.926Z,23.76
2022-09-13T00:06:17.915Z,23.43
2022-09-13T00:07:17.911Z,23.42
2022-09-13T00:08:17.899Z,23.55
2022-09-13T00:09:17.909Z,23.62
2022-09-13T00:10:17.877Z,23.98
2022-09-13T00:11:25.483Z,24.32
2022-09-13T00:12:17.852Z,24.37
2022-09-13T00:13:17.834Z,24.37
2022-09-13T00:14:17.825Z,24.1
2022-09-13T00:15:17.819Z,24.04
2022-09-13T00:16:17.810Z,24.12
2022-09-13T00:17:17.801Z,23.97
2022-09-13T00:18:17.790Z,24.01
2022-09-13T00:19:17.775Z,23.98
2022-09-13T00:20:17.763Z,23.87
2022-09-13T00:21:17.757Z,23.89
2022-09-13T00:22:17.744Z,23.89
2022-09-13T00:23:17.734Z,23.87
2022-09-13T00:24:17.737Z,24
2022-09-13T00:25:17.709Z,24.01
2022-09-13T00:26:17.698Z,24.23
2022-09-13T00:27:17.688Z,24.59
2022-09-13T00:28:17.680Z,24.85
2022-09-13T00:29:17.665Z,25.1
2022-09-13T00:30:17.659Z,25.52
2022-09-13T00:31:17.646Z,25.74
2022-09-13T00:32:17.638Z,25.38
2022-09-13T00:33:17.620Z,25.42
2022-09-13T00:34:17.614Z,25.44
2022-09-13T00:35:17.603Z,25.15
2022-09-13T00:36:17.594Z,24.9
2022-09-13T00:37:17.582Z,24.67
2022-09-13T00:38:17.571Z,24.57
2022-09-13T00:39:17.556Z,24.6
2022-09-13T00:40:17.558Z,24.5
2022-09-13T00:41:17.541Z,23.94
2022-09-13T00:42:17.529Z,23.8
2022-09-13T00:43:17.514Z,23.57
2022-09-13T00:44:17.500Z,23.08
2022-09-13T00:45:17.498Z,22.9
2022-09-13T00:46:17.492Z,22.68
2022-09-13T00:47:17.470Z,22.71
2022-09-13T00:48:17.457Z,22.71
2022-09-13T00:49:17.452Z,22.39
2022-09-13T00:50:17.438Z,21.92
2022-09-13T00:51:17.430Z,21.94
2022-09-13T00:52:17.422Z,22.01
2022-09-13T00:53:17.410Z,22.1
2022-09-13T00:54:17.396Z,22.28
2022-09-13T00:55:17.392Z,22.41
2022-09-13T00:56:17.380Z,22.34
2022-09-13T00:57:17.368Z,22.6
2022-09-13T00:58:17.363Z,22.77
2022-09-13T00:59:17.344Z,22.62
2022-09-13T01:00:17.328Z,22.92
2022-09-13T01:01:17.364Z,23.46
2022-09-13T01:02:17.313Z,23.87
2022-09-13T01:03:17.299Z,23.57
2022-09-13T01:04:17.291Z,23.2
2022-09-13T01:05:17.280Z,23.27
2022-09-13T01:06:17.268Z,23.26
2022-09-13T01:07:17.264Z,23.31
2022-09-13T01:08:17.249Z,22.39
2022-09-13T01:09:17.232Z,22.38
2022-09-13T01:10:17.224Z,22.75
2022-09-13T01:11:17.209Z,22.77
2022-09-13T01:12:17.202Z,22.99
2022-09-13T01:13:17.188Z,22.52
2022-09-13T01:14:17.176Z,22.78
2022-09-13T01:15:17.169Z,22.47
2022-09-13T01:16:17.162Z,22.28
2022-09-13T01:17:17.153Z,22.06
2022-09-13T01:18:17.136Z,22.43
2022-09-13T01:19:17.125Z,22.83
2022-09-13T01:20:17.115Z,22.68
2022-09-13T01:21:17.106Z,22.01
2022-09-13T01:22:17.122Z,22.13
2022-09-13T01:23:17.147Z,22.38
2022-09-13T01:24:17.074Z,22.96
2022-09-13T01:25:17.061Z,23.23
2022-09-13T01:26:17.064Z,23.12
2022-09-13T01:27:17.043Z,22.57
2022-09-13T01:28:17.030Z,22.19
2022-09-13T01:29:17.023Z,21.88
2022-09-13T01:30:17.008Z,21.98
2022-09-13T01:31:17.000Z,22.78
2022-09-13T01:32:16.990Z,22.99
2022-09-13T01:33:16.985Z,22.69
2022-09-13T01:34:16.969Z,22.6
2022-09-13T01:35:16.956Z,22.87
2022-09-13T01:36:16.950Z,22.94
2022-09-13T01:37:16.939Z,23.24
2022-09-13T01:38:16.933Z,22.69
2022-09-13T01:39:16.924Z,22.13
2022-09-13T01:40:16.904Z,22.09
2022-09-13T01:41:16.887Z,22.22
2022-09-13T01:42:16.879Z,22.31
2022-09-13T01:43:16.874Z,22.13
2022-09-13T01:44:16.860Z,21.97
2022-09-13T01:45:16.863Z,21.5
2022-09-13T01:46:16.834Z,21.85
2022-09-13T01:47:16.821Z,22.29
2022-09-13T01:48:16.811Z,22.37
2022-09-13T01:49:16.804Z,22.86
2022-09-13T01:50:16.796Z,22.67
2022-09-13T01:51:16.784Z,22.84
2022-09-13T01:52:16.774Z,23.35
2022-09-13T01:53:16.770Z,23.58
2022-09-13T01:54:16.760Z,24.04
2022-09-13T01:55:16.738Z,24.35
2022-09-13T01:56:16.737Z,24.26
2022-09-13T01:57:16.721Z,23.26
2022-09-13T01:58:16.713Z,23.29
2022-09-13T01:59:16.695Z,23.29
2022-09-13T02:00:16.688Z,23.5
2022-09-13T02:01:16.678Z,23.72
2022-09-13T02:02:16.669Z,23.9
2022-09-13T02:03:16.654Z,23.82
2022-09-13T02:04:16.646Z,23.9
2022-09-13T02:05:16.634Z,23.97
2022-09-13T02:06:16.625Z,24.17
2022-09-13T02:07:16.613Z,24.17
2022-09-13T02:08:16.605Z,24.2
2022-09-13T02:09:16.591Z,24.88
2022-09-13T02:10:16.574Z,25
2022-09-13T02:11:16.577Z,25.01
2022-09-13T02:12:16.555Z,25.05
2022-09-13T02:13:16.548Z,24.85
2022-09-13T02:14:16.539Z,24.75
2022-09-13T02:15:16.527Z,24.5
2022-09-13T02:16:16.523Z,24.67
2022-09-13T02:17:16.504Z,24.92
2022-09-13T02:18:16.495Z,24.67
2022-09-13T02:19:16.493Z,23.98
2022-09-13T02:20:16.471Z,23.57
2022-09-13T02:21:16.465Z,23.2
2022-09-13T02:22:16.459Z,23.17
2022-09-13T02:23:16.438Z,23.35
2022-09-13T02:24:16.431Z,23.39
2022-09-13T02:25:16.428Z,22.67
2022-09-13T02:26:16.404Z,22.32
2022-09-13T02:27:16.399Z,22.53
2022-09-13T02:28:16.387Z,23.09
2022-09-13T02:29:16.371Z,23.65
2022-09-13T02:30:16.361Z,23.9
2022-09-13T02:31:16.365Z,23.77
2022-09-13T02:32:16.345Z,23.55
2022-09-13T02:33:16.331Z,23.02
2022-09-13T02:34:16.319Z,22.62
2022-09-13T02:35:16.307Z,22.75
2022-09-13T02:36:16.303Z,22.92
2022-09-13T02:37:16.299Z,22.82
2022-09-13T02:38:16.280Z,22.6
2022-09-13T02:39:16.266Z,22.83
2022-09-13T02:40:16.263Z,22.84
2022-09-13T02:41:16.247Z,22.74
2022-09-13T02:42:16.240Z,22.96
2022-09-13T02:43:16.221Z,23.15
2022-09-13T02:44:16.215Z,23.61
2022-09-13T02:45:16.203Z,23.92
2022-09-13T02:46:16.196Z,24.12
2022-09-13T02:47:16.183Z,24.24
2022-09-13T02:48:16.177Z,24.32
2022-09-13T02:49:16.164Z,24.31
2022-09-13T02:50:16.151Z,24.35
2022-09-13T02:51:16.140Z,24.64
2022-09-13T02:52:16.136Z,24.47
2022-09-13T02:53:16.120Z,24.32
2022-09-13T02:54:16.121Z,24.31
2022-09-13T02:55:16.103Z,24.26
2022-09-13T02:56:16.089Z,24.52
2022-09-13T02:57:16.074Z,24.56
2022-09-13T02:58:16.064Z,24.63
2022-09-13T02:59:16.063Z,24.75
2022-09-13T03:00:16.041Z,24.79
2022-09-13T03:01:16.035Z,24.59
2022-09-13T03:02:16.025Z,24.41
2022-09-13T03:03:16.008Z,24.34
2022-09-13T03:04:16.000Z,24.13
2022-09-13T03:05:16.003Z,24
2022-09-13T03:06:15.988Z,23.97
2022-09-13T03:07:15.971Z,23.35
2022-09-13T03:08:15.957Z,23.08
2022-09-13T03:09:15.948Z,22.8
2022-09-13T03:10:15.936Z,22.77
2022-09-13T03:11:15.923Z,22.28
2022-09-13T03:12:15.916Z,22.38
2022-09-13T03:13:15.902Z,22.72
2022-09-13T03:14:15.891Z,22.82
2022-09-13T03:15:15.880Z,22.96
2022-09-13T03:16:15.872Z,22.84
2022-09-13T03:17:15.863Z,22.9
2022-09-13T03:18:15.858Z,22.69
2022-09-13T03:19:15.839Z,22.8
2022-09-13T03:20:15.832Z,22.92
2022-09-13T03:21:15.821Z,22.82
2022-09-13T03:22:15.808Z,22.29
2022-09-13T03:23:15.804Z,22.29
2022-09-13T03:24:15.789Z,22.02
2022-09-13T03:25:15.775Z,22.1
2022-09-13T03:26:15.762Z,22.27
2022-09-13T03:27:15.768Z,22.59
2022-09-13T03:28:15.753Z,22.94
2022-09-13T03:29:15.753Z,23.04
2022-09-13T03:30:15.724Z,23.46
2022-09-13T03:31:15.723Z,23.72
2022-09-13T03:32:15.701Z,23.89
2022-09-13T03:33:15.689Z,23.67
2022-09-13T03:34:15.699Z,23.87
2022-09-13T03:35:15.667Z,24.24
2022-09-13T03:36:15.656Z,24.6
2022-09-13T03:37:15.643Z,24.91
2022-09-13T03:38:15.634Z,24.94
2022-09-13T03:39:15.627Z,24.91
2022-09-13T03:40:15.619Z,24.95
2022-09-13T03:41:15.601Z,24.88
2022-09-13T03:42:15.595Z,25.07
2022-09-13T03:43:15.584Z,25.15
2022-09-13T03:44:15.571Z,25.31
2022-09-13T03:45:15.565Z,25.38
2022-09-13T03:46:15.556Z,25.24
2022-09-13T03:47:15.539Z,24.75
2022-09-13T03:48:15.530Z,24.26
2022-09-13T03:49:15.520Z,24.08
2022-09-13T03:50:15.517Z,23.65
2022-09-13T03:51:15.496Z,23.05
2022-09-13T03:52:15.497Z,22.77
2022-09-13T03:53:15.476Z,22.28
2022-09-13T03:54:15.464Z,22.17
2022-09-13T03:55:15.517Z,22.07
2022-09-13T03:56:15.441Z,21.67
2022-09-13T03:57:15.433Z,21.46
2022-09-13T03:58:15.425Z,20.98
2022-09-13T03:59:15.413Z,20.77
2022-09-13T04:00:15.404Z,20.71
2022-09-13T04:01:15.389Z,20.51
2022-09-13T04:02:15.381Z,20.27
2022-09-13T04:03:15.368Z,20.39
2022-09-13T04:04:15.359Z,20.69
2022-09-13T04:05:15.345Z,20.77
2022-09-13T04:06:15.337Z,21.06
2022-09-13T04:07:15.323Z,21.57
2022-09-13T04:08:15.322Z,21.71
2022-09-13T04:09:15.305Z,21.71
2022-09-13T04:10:15.290Z,21.95
2022-09-13T04:11:15.283Z,21.9
2022-09-13T04:12:15.273Z,21.48
2022-09-13T04:13:15.264Z,21.2
2022-09-13T04:14:15.257Z,21.38
2022-09-13T04:15:15.238Z,21.61
2022-09-13T04:16:15.230Z,21.34
2022-09-13T04:17:15.225Z,21.21
2022-09-13T04:18:15.204Z,21.02
2022-09-13T04:19:15.194Z,20.95
2022-09-13T04:20:15.190Z,20.96
2022-09-13T04:21:15.177Z,20.74
2022-09-13T04:22:15.163Z,20.59
2022-09-13T04:23:15.154Z,20.9
2022-09-13T04:24:15.146Z,21.05
2022-09-13T04:25:15.140Z,21.14
2022-09-13T04:26:15.121Z,21.21
2022-09-13T04:27:15.111Z,21.04
2022-09-13T04:28:15.097Z,20.87
2022-09-13T04:29:15.092Z,20.83
2022-09-13T04:30:15.083Z,20.9
2022-09-13T04:31:15.065Z,21.11
2022-09-13T04:32:15.059Z,20.91
2022-09-13T04:33:15.043Z,20.98
2022-09-13T04:34:15.034Z,20.81
2022-09-13T04:35:15.021Z,20.62
2022-09-13T04:36:15.012Z,20.42
2022-09-13T04:37:15.008Z,20.41
2022-09-13T04:38:14.993Z,20.62
2022-09-13T04:39:14.979Z,20.43
2022-09-13T04:40:14.968Z,20.62
2022-09-13T04:41:14.958Z,20.53
2022-09-13T04:42:14.951Z,20.54
2022-09-13T04:43:14.958Z,20.31
2022-09-13T04:44:14.939Z,19.97
2022-09-13T04:45:14.931Z,19.88
2022-09-13T04:46:14.908Z,19.9
2022-09-13T04:47:14.892Z,19.97
2022-09-13T04:48:14.883Z,20.33
2022-09-13T04:49:14.877Z,20.39
2022-09-13T04:50:14.866Z,20.28
2022-09-13T04:51:14.855Z,20.38
2022-09-13T04:52:14.846Z,20.53
2022-09-13T04:53:14.831Z,20.56
2022-09-13T04:54:14.823Z,21.05
2022-09-13T04:55:14.817Z,21.32
2022-09-13T04:56:14.817Z,21.38
2022-09-13T04:57:14.788Z,21.61
2022-09-13T04:58:14.777Z,21.63
2022-09-13T04:59:14.772Z,21.66
2022-09-13T05:00:14.756Z,22.04
2022-09-13T05:01:14.764Z,21.88
2022-09-13T05:02:14.733Z,21.45
2022-09-13T05:03:14.733Z,21.26
2022-09-13T05:04:14.717Z,20.96
2022-09-13T05:05:14.705Z,20.84
2022-09-13T05:06:14.695Z,20.91
2022-09-13T05:07:14.692Z,20.83
2022-09-13T05:08:14.692Z,20.95
2022-09-13T05:09:14.658Z,20.86
2022-09-13T05:10:14.649Z,20.77
2022-09-13T05:11:14.638Z,20.58
2022-09-13T05:12:14.627Z,20.77
2022-09-13T05:13:14.621Z,20.84
2022-09-13T05:14:14.607Z,20.72
2022-09-13T05:15:14.594Z,20.74
2022-09-13T05:16:14.587Z,20.81
2022-09-13T05:17:14.574Z,20.69
2022-09-13T05:18:14.586Z,20.84
2022-09-13T05:19:14.566Z,21.02
2022-09-13T05:20:14.541Z,21.05
2022-09-13T05:21:14.538Z,20.86
2022-09-13T05:22:14.578Z,20.56
2022-09-13T05:23:14.509Z,20.46
2022-09-13T05:24:14.500Z,20.15
2022-09-13T05:25:14.493Z,19.88
2022-09-13T05:26:14.477Z,19.69
2022-09-13T05:27:14.470Z,19.68
2022-09-13T05:28:14.454Z,19.65
2022-09-13T05:29:14.447Z,19.6
2022-09-13T05:30:14.483Z,19.72
2022-09-13T05:31:14.422Z,19.75
2022-09-13T05:32:14.416Z,19.73
2022-09-13T05:33:14.403Z,19.93
2022-09-13T05:34:15.182Z,19.84
2022-09-13T05:35:14.385Z,19.91
2022-09-13T05:36:14.369Z,19.91
2022-09-13T05:37:14.360Z,20.09
2022-09-13T05:38:14.349Z,20.3
2022-09-13T05:39:14.344Z,20.35
2022-09-13T05:40:14.337Z,20.5
2022-09-13T05:41:14.330Z,20.69
2022-09-13T05:42:14.310Z,20.8
2022-09-13T05:43:14.300Z,20.91
2022-09-13T05:44:14.287Z,20.89
2022-09-13T05:45:14.274Z,20.9
2022-09-13T05:46:14.274Z,21.11
2022-09-13T05:47:14.252Z,21.17
2022-09-13T05:48:14.247Z,21.14
2022-09-13T05:49:14.231Z,20.91
2022-09-13T05:50:14.223Z,21.21
2022-09-13T05:51:14.215Z,21.66
2022-09-13T05:52:14.203Z,21.98
2022-09-13T05:53:14.189Z,22.17
2022-09-13T05:54:14.181Z,22.16
2022-09-13T05:55:14.171Z,21.78
2022-09-13T05:56:14.157Z,21.97
2022-09-13T05:57:14.147Z,21.94
2022-09-13T05:58:14.140Z,21.75
2022-09-13T05:59:14.128Z,21.64
2022-09-13T06:00:14.114Z,21.83
2022-09-13T06:01:14.110Z,21.61
2022-09-13T06:02:14.143Z,21.39
2022-09-13T06:03:14.085Z,21.19
2022-09-13T06:04:14.073Z,21.05
2022-09-13T06:05:14.058Z,21.08
2022-09-13T06:06:14.052Z,21.02
2022-09-13T06:07:14.037Z,21.11
2022-09-13T06:08:14.026Z,21.01
2022-09-13T06:09:14.020Z,21.16
2022-09-13T06:10:14.010Z,20.81
2022-09-13T06:11:13.999Z,20.34
2022-09-13T06:12:13.997Z,20.1
2022-09-13T06:13:13.984Z,20.12
2022-09-13T06:14:13.999Z,20.12
2022-09-13T06:15:13.976Z,20.12
2022-09-13T06:16:13.950Z,20.28
2022-09-13T06:17:13.967Z,20.51
2022-09-13T06:18:13.943Z,20.59
2022-09-13T06:19:13.914Z,20.5
2022-09-13T06:20:13.901Z,20.77
2022-09-13T06:21:13.890Z,20.77
2022-09-13T06:22:13.885Z,21.06
2022-09-13T06:23:13.920Z,21.08
2022-09-13T06:24:13.857Z,21.05
2022-09-13T06:25:13.843Z,20.96
2022-09-13T06:26:13.838Z,21.02
2022-09-13T06:27:13.827Z,21.41
2022-09-13T06:28:13.810Z,21.21
2022-09-13T06:29:13.806Z,21.3
2022-09-13T06:30:13.800Z,21.26
2022-09-13T06:31:13.782Z,21.44
2022-09-13T06:32:13.768Z,21.46
2022-09-13T06:33:13.786Z,21.57
2022-09-13T06:34:13.748Z,21.64
2022-09-13T06:35:13.739Z,21.72
2022-09-13T06:36:13.729Z,21.83
2022-09-13T06:37:13.721Z,21.79
2022-09-13T06:38:13.707Z,21.97
2022-09-13T06:39:13.700Z,22.02
2022-09-13T06:40:14.684Z,22.17
2022-09-13T06:41:13.674Z,22.28
2022-09-13T06:42:13.695Z,22.43
2022-09-13T06:43:13.657Z,22.57
2022-09-13T06:44:13.648Z,22.65
2022-09-13T06:45:13.649Z,22.96
2022-09-13T06:46:13.648Z,23.12
2022-09-13T06:47:13.612Z,23.23
2022-09-13T06:48:13.599Z,22.77
2022-09-13T06:49:13.594Z,22.41
2022-09-13T06:50:13.602Z,22.07
2022-09-13T06:51:13.574Z,21.91
2022-09-13T06:52:13.574Z,21.67
2022-09-13T06:53:13.542Z,21.61
2022-09-13T06:54:13.537Z,21.56
2022-09-13T06:55:13.523Z,21.67
2022-09-13T06:56:13.515Z,21.63
2022-09-13T06:57:13.526Z,21.66
2022-09-13T06:58:13.505Z,21.81
2022-09-13T06:59:13.481Z,22.04
2022-09-13T07:00:13.472Z,22.31
2022-09-13T07:01:13.460Z,22.49
2022-09-13T07:02:13.452Z,23.01
2022-09-13T07:03:13.450Z,23.43
2022-09-13T07:04:13.451Z,24.32
2022-09-13T07:05:13.415Z,24.82
2022-09-13T07:06:13.409Z,24.9
2022-09-13T07:07:13.395Z,24.91
2022-09-13T07:08:13.389Z,25.35
2022-09-13T07:09:13.394Z,25.52
2022-09-13T07:10:13.371Z,25.37
2022-09-13T07:11:13.353Z,25.34
2022-09-13T07:12:13.355Z,25.19
2022-09-13T07:13:13.332Z,24.94
2022-09-13T07:14:13.318Z,24.57
2022-09-13T07:15:13.324Z,24.35
2022-09-13T07:16:13.295Z,24.07
2022-09-13T07:17:13.287Z,24.17
2022-09-13T07:18:13.328Z,24.26
2022-09-13T07:19:13.261Z,24.29
2022-09-13T07:20:13.256Z,24.41
2022-09-13T07:21:13.241Z,24.47
2022-09-13T07:22:13.229Z,24.59
2022-09-13T07:23:13.222Z,24.88
2022-09-13T07:24:13.209Z,26.09
2022-09-13T07:25:13.197Z,27.11
2022-09-13T07:26:13.197Z,27.95
2022-09-13T07:27:13.175Z,28.72
2022-09-13T07:28:13.170Z,29.41
2022-09-13T07:29:13.160Z,29.97
2022-09-13T07:30:13.147Z,30.76
2022-09-13T07:31:13.143Z,31.42
2022-09-13T07:32:13.140Z,31.13
2022-09-13T07:33:13.115Z,31.08
2022-09-13T07:34:13.102Z,30.94
2022-09-13T07:35:13.094Z,30.46
2022-09-13T07:36:13.091Z,29.89
2022-09-13T07:37:13.072Z,29.43
2022-09-13T07:38:13.058Z,28.72
2022-09-13T07:39:13.059Z,27.91
2022-09-13T07:40:13.034Z,27.2
2022-09-13T07:41:13.030Z,26.69
2022-09-13T07:42:13.024Z,26.47
2022-09-13T07:43:13.009Z,26.32
2022-09-13T07:44:12.992Z,26.21
2022-09-13T07:45:12.990Z,26.06
2022-09-13T07:46:12.981Z,26.05
2022-09-13T07:47:12.972Z,26.05
2022-09-13T07:48:12.966Z,26.06
2022-09-13T07:49:12.948Z,26.11
2022-09-13T07:50:12.932Z,25.93
2022-09-13T07:51:12.924Z,25.64
2022-09-13T07:52:12.915Z,25.69
2022-09-13T07:53:12.925Z,25.69
2022-09-13T07:54:12.887Z,25.75
2022-09-13T07:55:12.887Z,25.69
2022-09-13T07:56:12.865Z,25.57
2022-09-13T07:57:12.859Z,25.24
2022-09-13T07:58:12.848Z,25.1
2022-09-13T07:59:12.844Z,25
2022-09-13T08:00:12.831Z,24.91
2022-09-13T08:01:12.821Z,24.87
2022-09-13T08:02:12.818Z,24.79
2022-09-13T08:03:12.797Z,24.82
2022-09-13T08:04:12.786Z,24.8
2022-09-13T08:05:12.789Z,24.88
2022-09-13T08:06:12.760Z,24.9
2022-09-13T08:07:12.748Z,24.8
2022-09-13T08:08:12.739Z,24.69
2022-09-13T08:09:12.734Z,24.59
2022-09-13T08:10:12.718Z,24.69
2022-09-13T08:11:12.714Z,24.73
2022-09-13T08:12:12.698Z,24.79
2022-09-13T08:13:12.699Z,24.87
2022-09-13T08:14:12.677Z,24.98
2022-09-13T08:15:12.663Z,24.98
2022-09-13T08:16:12.656Z,25.16
2022-09-13T08:17:12.646Z,25.27
2022-09-13T08:18:12.654Z,25.15
2022-09-13T08:19:12.625Z,25.06
2022-09-13T08:20:12.610Z,25.06
2022-09-13T08:21:12.597Z,24.88
2022-09-13T08:22:12.599Z,24.76
2022-09-13T08:23:12.582Z,24.83
2022-09-13T08:24:12.578Z,24.97
2022-09-13T08:25:12.558Z,24.95
2022-09-13T08:26:12.555Z,24.94
2022-09-13T08:27:12.544Z,24.88
2022-09-13T08:28:12.531Z,24.9
2022-09-13T08:29:12.543Z,24.82
2022-09-13T08:30:12.504Z,24.88
2022-09-13T08:31:12.517Z,24.8
2022-09-13T08:32:12.484Z,24.82
2022-09-13T08:33:12.476Z,24.67
2022-09-13T08:34:12.460Z,24.37
2022-09-13T08:35:12.454Z,24.26
2022-09-13T08:36:12.462Z,24.27
2022-09-13T08:37:12.430Z,24.31
2022-09-13T08:38:12.416Z,24.24
2022-09-13T08:39:12.411Z,24.32
2022-09-13T08:40:12.394Z,24.47
2022-09-13T08:41:12.392Z,24.53
2022-09-13T08:42:12.396Z,24.69
2022-09-13T08:43:12.390Z,24.76
2022-09-13T08:44:12.353Z,24.61
2022-09-13T08:45:12.439Z,24.64
2022-09-13T08:46:12.336Z,24.5
2022-09-13T08:47:12.326Z,24.83
2022-09-13T08:48:12.311Z,24.47
2022-09-13T08:49:12.305Z,24.47
2022-09-13T08:50:12.287Z,24.32
2022-09-13T08:51:12.289Z,24.37
2022-09-13T08:52:12.288Z,24.39
2022-09-13T08:53:12.257Z,24.37
2022-09-13T08:54:12.246Z,24.08
2022-09-13T08:55:12.232Z,24.14
2022-09-13T08:56:12.242Z,24.12
2022-09-13T08:57:12.221Z,24.04
2022-09-13T08:58:12.330Z,24.12
2022-09-13T08:59:12.190Z,24.12
2022-09-13T09:00:12.182Z,24.34
2022-09-13T09:01:12.169Z,24.53
2022-09-13T09:02:12.157Z,24.32
2022-09-13T09:03:12.154Z,24.31
2022-09-13T09:04:12.140Z,24.35
2022-09-13T09:05:12.180Z,24.38
2022-09-13T09:06:12.117Z,24.57
2022-09-13T09:07:12.145Z,24.54
2022-09-13T09:08:12.103Z,24.6
2022-09-13T09:09:12.088Z,24.63
2022-09-13T09:10:12.078Z,24.54
2022-09-13T09:11:12.062Z,24.45
2022-09-13T09:12:12.067Z,24.32
2022-09-13T09:13:12.043Z,24.31
2022-09-13T09:14:12.028Z,24.35
2022-09-13T09:15:12.021Z,24.5
2022-09-13T09:16:12.036Z,24.52
2022-09-13T09:17:11.999Z,24.49
2022-09-13T09:18:11.997Z,24.57
2022-09-13T09:19:11.991Z,24.69
2022-09-13T09:20:11.988Z,24.73
2022-09-13T09:21:11.959Z,25
2022-09-13T09:22:11.948Z,24.91
2022-09-13T09:23:11.949Z,24.95
2022-09-13T09:24:11.950Z,25
2022-09-13T09:25:11.926Z,25.09
2022-09-13T09:26:11.912Z,24.88
2022-09-13T09:27:11.902Z,24.68
2022-09-13T09:28:11.888Z,24.5
2022-09-13T09:29:11.872Z,24.52
2022-09-13T09:30:11.863Z,24.67
2022-09-13T09:31:11.920Z,24.88
2022-09-13T09:32:11.839Z,24.71
2022-09-13T09:33:11.852Z,24.67
2022-09-13T09:34:11.892Z,24.83
2022-09-13T09:35:11.815Z,25.12
2022-09-13T09:36:11.798Z,25.07
2022-09-13T09:37:11.793Z,25.05
2022-09-13T09:38:11.796Z,25
2022-09-13T09:39:11.762Z,24.94
2022-09-13T09:40:11.756Z,24.91
2022-09-13T09:41:11.786Z,24.54
2022-09-13T09:42:11.881Z,24.14
2022-09-13T09:43:11.724Z,24.08
2022-09-13T09:44:11.713Z,24.07
2022-09-13T09:45:11.708Z,24.13
2022-09-13T09:46:11.722Z,24.13
2022-09-13T09:47:11.680Z,24.13
2022-09-13T09:48:11.666Z,24.19
2022-09-13T09:49:11.678Z,24.26
2022-09-13T09:50:11.667Z,24.19
2022-09-13T09:51:11.640Z,24.16
2022-09-13T09:52:11.621Z,24.27
2022-09-13T09:53:11.624Z,24.44
2022-09-13T09:54:11.617Z,24.53
2022-09-13T09:55:11.592Z,24.49
2022-09-13T09:56:11.583Z,24.49
2022-09-13T09:57:11.627Z,24.6
2022-09-13T09:58:11.560Z,24.47
2022-09-13T09:59:11.550Z,24.52
2022-09-13T10:00:11.743Z,24.64
2022-09-13T10:01:11.530Z,24.57
2022-09-13T10:02:11.519Z,24.69
2022-09-13T10:03:11.552Z,24.71
2022-09-13T10:04:11.516Z,24.83
2022-09-13T10:05:11.488Z,24.87
2022-09-13T10:06:11.482Z,24.8
2022-09-13T10:07:11.463Z,24.77
2022-09-13T10:08:11.491Z,24.76
2022-09-13T10:09:11.442Z,24.77
2022-09-13T10:10:11.432Z,24.54
2022-09-13T10:11:11.433Z,24.37
2022-09-13T10:12:11.408Z,24.37
2022-09-13T10:13:11.398Z,24.32
2022-09-13T10:14:11.391Z,24.49
2022-09-13T10:15:11.400Z,24.54
2022-09-13T10:16:11.371Z,24.64
2022-09-13T10:17:11.397Z,24.52
2022-09-13T10:18:11.349Z,24.63
2022-09-13T10:19:11.335Z,24.5
2022-09-13T10:20:11.325Z,24.57
2022-09-13T10:21:11.316Z,24.54
2022-09-13T10:22:11.303Z,24.54
2022-09-13T10:23:11.323Z,24.37
2022-09-13T10:24:11.289Z,24.45
2022-09-13T10:25:11.310Z,24.37
2022-09-13T10:26:11.266Z,24.37
2022-09-13T10:27:11.251Z,24.57
2022-09-13T10:28:11.239Z,24.73
2022-09-13T10:29:11.227Z,24.87
2022-09-13T10:30:11.219Z,25.02
2022-09-13T10:31:11.224Z,24.95
2022-09-13T10:32:11.218Z,24.85
2022-09-13T10:33:11.192Z,24.63
2022-09-13T10:34:11.195Z,24.69
2022-09-13T10:35:11.167Z,24.49
2022-09-13T10:36:11.162Z,24.27
2022-09-13T10:37:11.140Z,24.27
2022-09-13T10:38:11.209Z,24.34
2022-09-13T10:39:11.122Z,24.49
2022-09-13T10:40:11.121Z,24.49
2022-09-13T10:41:11.099Z,24.63
2022-09-13T10:42:11.090Z,24.63
2022-09-13T10:43:11.081Z,24.92
2022-09-13T10:44:11.075Z,24.91
2022-09-13T10:45:11.059Z,25.06
2022-09-13T10:46:11.055Z,25.25
2022-09-13T10:47:11.046Z,25.02
2022-09-13T10:48:11.050Z,25.1
2022-09-13T10:49:11.022Z,25.39
2022-09-13T10:50:11.021Z,25.42
2022-09-13T10:51:10.989Z,25.32
2022-09-13T10:52:10.982Z,25.34
2022-09-13T10:53:10.969Z,25.27
2022-09-13T10:54:10.971Z,25.02
2022-09-13T10:55:10.957Z,25.15
2022-09-13T10:56:10.945Z,25.13
2022-09-13T10:57:10.940Z,25.32
2022-09-13T10:58:10.944Z,25.42
2022-09-13T10:59:10.924Z,25.75
2022-09-13T11:00:10.895Z,26.4
2022-09-13T11:01:10.906Z,27.14
2022-09-13T11:02:10.882Z,27.62
2022-09-13T11:03:10.864Z,27.82
2022-09-13T11:04:10.858Z,27.82
2022-09-13T11:05:10.884Z,27.69
2022-09-13T11:06:10.829Z,27.26
2022-09-13T11:07:10.825Z,26.92
2022-09-13T11:08:10.850Z,26.52
2022-09-13T11:09:10.803Z,26.44
2022-09-13T11:10:10.794Z,26.43
2022-09-13T11:11:10.803Z,26.42
2022-09-13T11:12:10.776Z,26.35
2022-09-13T11:13:10.760Z,25.91
2022-09-13T11:14:10.778Z,25.77
2022-09-13T11:15:10.747Z,25.62
2022-09-13T11:16:10.729Z,25.65
2022-09-13T11:17:11.629Z,25.57
2022-09-13T11:18:10.704Z,25.32
2022-09-13T11:19:10.699Z,25.22
2022-09-13T11:20:10.685Z,25.27
2022-09-13T11:21:10.679Z,24.97
2022-09-13T11:22:10.740Z,24.94
2022-09-13T11:23:10.662Z,24.98
2022-09-13T11:24:10.639Z,25.02
2022-09-13T11:25:10.635Z,25.3
2022-09-13T11:26:10.628Z,25.34
2022-09-13T11:27:10.605Z,25.1
2022-09-13T11:28:10.618Z,24.94
2022-09-13T11:29:10.611Z,24.82
2022-09-13T11:30:10.575Z,24.91
2022-09-13T11:31:10.559Z,24.82
2022-09-13T11:32:10.552Z,24.88
2022-09-13T11:33:10.556Z,24.71
2022-09-13T11:34:10.532Z,24.64
2022-09-13T11:35:10.520Z,24.91
2022-09-13T11:36:10.511Z,24.85
2022-09-13T11:37:10.514Z,24.83
2022-09-13T11:38:10.511Z,24.79
2022-09-13T11:39:10.523Z,24.82
2022-09-13T11:40:10.468Z,24.64
2022-09-13T11:41:10.469Z,24.79
2022-09-13T11:42:10.439Z,24.88
2022-09-13T11:43:10.439Z,24.98
2022-09-13T11:44:10.442Z,24.94
2022-09-13T11:45:10.417Z,24.9
2022-09-13T11:46:10.414Z,24.69
2022-09-13T11:47:10.405Z,24.71
2022-09-13T11:48:10.380Z,24.76
2022-09-13T11:49:10.376Z,24.79
2022-09-13T11:50:10.359Z,24.97
2022-09-13T11:51:10.344Z,25.02
2022-09-13T11:52:10.338Z,24.92
2022-09-13T11:53:10.330Z,24.87
2022-09-13T11:54:10.346Z,24.97
2022-09-13T11:55:10.303Z,25
2022-09-13T11:56:10.293Z,25.1
2022-09-13T11:57:10.278Z,25.19
2022-09-13T11:58:10.268Z,25.12
2022-09-13T11:59:10.269Z,25
2022-09-13T12:00:10.249Z,24.91
2022-09-13T12:01:10.233Z,25.02
2022-09-13T12:02:10.229Z,25
2022-09-13T12:03:10.219Z,24.88
2022-09-13T12:04:10.206Z,24.92
2022-09-13T12:05:10.196Z,25.05
2022-09-13T12:06:10.185Z,24.97
2022-09-13T12:07:10.225Z,24.97
2022-09-13T12:08:10.161Z,24.91
2022-09-13T12:09:10.157Z,24.87
2022-09-13T12:10:10.145Z,24.92
2022-09-13T12:11:10.135Z,25.07
2022-09-13T12:12:10.123Z,24.91
2022-09-13T12:13:10.107Z,24.97
2022-09-13T12:14:10.097Z,24.92
2022-09-13T12:15:10.091Z,25.07
2022-09-13T12:16:10.134Z,25.34
2022-09-13T12:17:11.083Z,25.5
2022-09-13T12:18:10.074Z,25.65
2022-09-13T12:19:10.049Z,25.64
2022-09-13T12:20:10.034Z,25.47
2022-09-13T12:21:10.036Z,25.2
2022-09-13T12:22:10.020Z,25.16
2022-09-13T12:23:10.011Z,25.13
2022-09-13T12:24:09.993Z,25.2
2022-09-13T12:25:09.988Z,25.16
2022-09-13T12:26:09.976Z,24.91
2022-09-13T12:27:09.977Z,24.91
2022-09-13T12:28:09.950Z,24.77
2022-09-13T12:29:09.948Z,24.85
2022-09-13T12:30:09.956Z,24.8
2022-09-13T12:31:09.918Z,24.85
2022-09-13T12:32:09.912Z,25.09
2022-09-13T12:33:09.901Z,25.13
2022-09-13T12:34:09.894Z,25.17
2022-09-13T12:35:09.876Z,25.09
2022-09-13T12:36:09.882Z,25.06
2022-09-13T12:37:09.861Z,25.06
2022-09-13T12:38:09.852Z,25.16
2022-09-13T12:39:09.837Z,25.44
2022-09-13T12:40:09.870Z,25.72
2022-09-13T12:41:09.815Z,25.74
2022-09-13T12:42:09.806Z,25.86
2022-09-13T12:43:09.807Z,25.94
2022-09-13T12:44:09.785Z,25.93
2022-09-13T12:45:09.771Z,25.72
2022-09-13T12:46:09.768Z,25.79
2022-09-13T12:47:09.757Z,25.71
2022-09-13T12:48:09.743Z,25.57
2022-09-13T12:49:09.732Z,25.65
2022-09-13T12:50:09.721Z,25.52
2022-09-13T12:51:09.741Z,25.46
2022-09-13T12:52:09.748Z,25.57
2022-09-13T12:53:09.691Z,25.57
2022-09-13T12:54:09.683Z,25.62
2022-09-13T12:55:09.671Z,25.61